createdAt,value
2018-07-03T00:00:14.841Z,20.39
2018-07-03T00:02:43.617Z,20.37
2018-07-03T00:05:12.401Z,20.33
2018-07-03T00:07:41.133Z,20.31
2018-07-03T00:10:10.633Z,20.24
2018-07-03T00:12:39.742Z,20.21
2018-07-03T00:15:08.818Z,20.16
2018-07-03T00:17:37.570Z,20.16
2018-07-03T00:20:07.844Z,20.17
2018-07-03T00:22:36.593Z,20.17
2018-07-03T00:25:05.452Z,20.18
2018-07-03T00:27:34.383Z,20.18
2018-07-03T00:30:04.674Z,20.16
2018-07-03T00:32:33.405Z,20.10
2018-07-03T00:35:02.155Z,19.99
2018-07-03T00:37:30.921Z,20.02
2018-07-03T00:39:59.633Z,20.01
2018-07-03T00:42:28.342Z,19.98
2018-07-03T00:44:57.090Z,19.98
2018-07-03T00:47:25.881Z,20.00
2018-07-03T00:49:54.640Z,20.03
2018-07-03T00:52:23.381Z,20.09
2018-07-03T00:54:52.116Z,20.14
2018-07-03T00:57:20.905Z,20.18
2018-07-03T01:00:00.629Z,20.17
2018-07-03T01:02:29.413Z,20.14
2018-07-03T01:04:58.142Z,20.10
2018-07-03T01:07:27.117Z,20.08
2018-07-03T01:09:55.902Z,20.06
2018-07-03T01:12:24.748Z,20.05
2018-07-03T01:14:53.542Z,20.01
2018-07-03T01:17:22.515Z,19.96
2018-07-03T01:19:51.401Z,19.92
2018-07-03T01:22:20.580Z,19.90
2018-07-03T01:24:49.319Z,19.93
2018-07-03T01:27:18.079Z,19.95
2018-07-03T01:29:46.830Z,19.92
2018-07-03T01:32:15.570Z,19.89
2018-07-03T01:34:44.325Z,19.91
2018-07-03T01:37:13.141Z,19.94
2018-07-03T01:39:41.991Z,19.92
2018-07-03T01:42:10.731Z,19.88
2018-07-03T01:44:39.493Z,19.90
2018-07-03T01:47:08.230Z,19.90
2018-07-03T01:49:37.048Z,19.88
2018-07-03T01:52:05.922Z,19.85
2018-07-03T01:54:34.716Z,19.86
2018-07-03T01:57:03.517Z,19.88
2018-07-03T01:59:32.275Z,19.82
2018-07-03T02:02:01.011Z,19.78
2018-07-03T02:04:29.785Z,19.69
2018-07-03T02:06:58.527Z,19.62
2018-07-03T02:09:27.291Z,19.55
2018-07-03T02:11:56.065Z,19.46
2018-07-03T02:14:24.840Z,19.38
2018-07-03T02:16:53.652Z,19.35
2018-07-03T02:19:22.389Z,19.29
2018-07-03T02:21:51.314Z,19.31
2018-07-03T02:24:20.114Z,19.33
2018-07-03T02:26:49.299Z,19.42
2018-07-03T02:29:18.065Z,19.42
2018-07-03T02:31:46.810Z,19.42
2018-07-03T02:34:15.537Z,19.38
2018-07-03T02:36:44.263Z,19.24
2018-07-03T02:39:13.729Z,19.20
2018-07-03T02:41:42.653Z,19.22
2018-07-03T02:44:11.389Z,19.24
2018-07-03T02:46:40.203Z,19.20
2018-07-03T02:49:09.009Z,19.12
2018-07-03T02:51:37.750Z,19.11
2018-07-03T02:54:06.545Z,19.13
2018-07-03T02:56:35.255Z,19.19
2018-07-03T02:59:04.083Z,19.21
2018-07-03T03:01:32.828Z,19.29
2018-07-03T03:04:01.640Z,19.20
2018-07-03T03:06:30.374Z,19.18
2018-07-03T03:08:59.103Z,19.22
2018-07-03T03:11:27.831Z,19.22
2018-07-03T03:13:57.281Z,19.26
2018-07-03T03:16:26.012Z,19.26
2018-07-03T03:18:54.758Z,19.24
2018-07-03T03:21:23.905Z,19.25
2018-07-03T03:23:52.664Z,19.28
2018-07-03T03:26:21.444Z,19.29
2018-07-03T03:28:50.307Z,19.29
2018-07-03T03:31:19.163Z,19.26
2018-07-03T03:33:47.893Z,19.28
2018-07-03T03:36:16.726Z,19.31
2018-07-03T03:38:45.545Z,19.34
2018-07-03T03:41:14.341Z,19.32
2018-07-03T03:43:43.646Z,19.32
2018-07-03T03:46:12.386Z,19.37
2018-07-03T03:48:41.176Z,19.44
2018-07-03T03:51:10.034Z,19.49
2018-07-03T03:53:38.797Z,19.56
2018-07-03T03:56:07.561Z,19.64
2018-07-03T03:58:36.396Z,19.62
2018-07-03T04:01:05.225Z,19.72
2018-07-03T04:03:34.004Z,19.74
2018-07-03T04:06:02.798Z,19.75
2018-07-03T04:08:31.999Z,19.84
2018-07-03T04:11:00.855Z,19.92
2018-07-03T04:13:29.593Z,20.02
2018-07-03T04:15:58.363Z,20.14
2018-07-03T04:18:32.068Z,20.24
2018-07-03T04:21:01.809Z,20.32
2018-07-03T04:23:30.874Z,20.39
2018-07-03T04:26:00.189Z,20.48
2018-07-03T04:28:29.176Z,20.61
2018-07-03T04:30:57.864Z,20.74
2018-07-03T04:33:26.844Z,20.88
2018-07-03T04:35:55.699Z,21.00
2018-07-03T04:38:24.480Z,21.11
2018-07-03T04:40:53.408Z,21.18
2018-07-03T04:43:22.142Z,21.29
2018-07-03T04:45:50.937Z,21.33
2018-07-03T04:48:19.730Z,21.52
2018-07-03T04:50:48.514Z,21.70
2018-07-03T04:53:17.288Z,22.19
2018-07-03T04:55:46.358Z,22.99
2018-07-03T04:58:15.068Z,23.91
2018-07-03T05:00:43.856Z,24.47
2018-07-03T05:03:12.643Z,25.06
2018-07-03T05:05:41.853Z,25.53
2018-07-03T05:08:10.655Z,25.75
2018-07-03T05:10:39.422Z,25.94
2018-07-03T05:13:08.125Z,26.42
2018-07-03T05:15:36.995Z,26.74
2018-07-03T05:18:07.241Z,26.96
2018-07-03T05:20:35.994Z,27.13
2018-07-03T05:23:04.786Z,27.44
2018-07-03T05:25:33.534Z,27.89
2018-07-03T05:28:02.298Z,27.98
2018-07-03T05:30:31.049Z,28.14
2018-07-03T05:33:00.128Z,28.37
2018-07-03T05:35:29.006Z,28.42
2018-07-03T05:37:57.887Z,28.43
2018-07-03T05:40:26.746Z,28.42
2018-07-03T05:42:55.509Z,28.80
2018-07-03T05:45:24.592Z,29.05
2018-07-03T05:47:53.387Z,29.09
2018-07-03T05:50:22.174Z,29.27
2018-07-03T05:52:50.943Z,29.28
2018-07-03T05:55:19.703Z,29.23
2018-07-03T05:57:48.459Z,29.23
2018-07-03T06:00:17.227Z,28.99
2018-07-03T06:02:45.986Z,28.93
2018-07-03T06:05:14.796Z,28.77
2018-07-03T06:07:43.675Z,28.26
2018-07-03T06:10:12.469Z,27.60
2018-07-03T06:12:41.225Z,27.15
2018-07-03T06:15:10.013Z,26.90
2018-07-03T06:17:39.003Z,26.75
2018-07-03T06:20:09.998Z,26.67
2018-07-03T06:22:38.725Z,26.53
2018-07-03T06:25:07.491Z,26.47
2018-07-03T06:27:37.214Z,26.46
2018-07-03T06:30:07.332Z,26.44
2018-07-03T06:32:36.183Z,26.20
2018-07-03T06:35:05.286Z,26.29
2018-07-03T06:37:34.885Z,26.32
2018-07-03T06:40:04.303Z,26.28
2018-07-03T06:42:33.051Z,26.20
2018-07-03T06:45:01.868Z,26.29
2018-07-03T06:47:30.981Z,26.28
2018-07-03T06:49:59.838Z,26.03
2018-07-03T06:52:28.579Z,26.10
2018-07-03T06:54:57.324Z,26.19
2018-07-03T06:57:26.105Z,26.13
2018-07-03T06:59:54.874Z,25.97
2018-07-03T07:02:23.856Z,25.81
2018-07-03T07:04:52.944Z,25.75
2018-07-03T07:07:38.038Z,25.72
2018-07-03T07:10:23.225Z,25.62
2018-07-03T07:12:52.025Z,25.32
2018-07-03T07:15:20.769Z,25.14
2018-07-03T07:17:50.195Z,25.22
2018-07-03T07:20:18.975Z,25.09
2018-07-03T07:22:47.719Z,25.04
2018-07-03T07:25:16.450Z,25.06
2018-07-03T07:27:45.301Z,25.24
2018-07-03T07:30:14.953Z,25.28
2018-07-03T07:32:43.715Z,25.35
2018-07-03T07:35:12.505Z,25.30
2018-07-03T07:37:41.573Z,25.30
2018-07-03T07:40:10.352Z,25.33
2018-07-03T07:42:39.087Z,25.33
2018-07-03T07:45:08.242Z,25.36
2018-07-03T07:47:37.381Z,25.32
2018-07-03T07:50:06.379Z,25.46
2018-07-03T07:52:35.215Z,25.54
2018-07-03T07:55:04.058Z,25.72
2018-07-03T07:57:32.894Z,25.77
2018-07-03T08:00:01.753Z,25.73
2018-07-03T08:02:30.536Z,25.59
2018-07-03T08:04:59.260Z,25.61
2018-07-03T08:07:28.914Z,25.68
2018-07-03T08:09:57.674Z,25.72
2018-07-03T08:12:26.395Z,25.86
2018-07-03T08:14:55.132Z,25.83
2018-07-03T08:17:23.921Z,25.83
2018-07-03T08:19:52.738Z,25.83
2018-07-03T08:22:21.498Z,25.80
2018-07-03T08:24:50.257Z,25.89
2018-07-03T08:27:19.046Z,25.97
2018-07-03T08:29:47.834Z,26.00
2018-07-03T08:32:16.640Z,26.05
2018-07-03T08:34:45.559Z,26.09
2018-07-03T08:37:14.275Z,26.03
2018-07-03T08:39:43.039Z,26.05
2018-07-03T08:42:11.871Z,26.00
2018-07-03T08:44:41.642Z,26.11
2018-07-03T08:47:10.426Z,26.27
2018-07-03T08:49:39.279Z,26.42
2018-07-03T08:52:08.050Z,26.49
2018-07-03T08:54:36.894Z,26.54
2018-07-03T08:57:06.046Z,26.65
2018-07-03T08:59:34.886Z,26.72
2018-07-03T09:02:03.687Z,26.73
2018-07-03T09:04:32.475Z,26.77
2018-07-03T09:07:01.247Z,26.88
2018-07-03T09:09:30.108Z,26.89
2018-07-03T09:11:58.927Z,26.95
2018-07-03T09:14:27.753Z,26.88
2018-07-03T09:16:56.506Z,26.85
2018-07-03T09:19:25.468Z,26.85
2018-07-03T09:21:54.318Z,26.98
2018-07-03T09:24:23.169Z,27.10
2018-07-03T09:26:51.969Z,27.28
2018-07-03T09:29:20.764Z,27.34
2018-07-03T09:31:49.529Z,27.51
2018-07-03T09:34:18.253Z,27.47
2018-07-03T09:36:47.731Z,27.44
2018-07-03T09:39:16.516Z,27.44
2018-07-03T09:41:45.341Z,27.37
2018-07-03T09:44:14.123Z,27.27
2018-07-03T09:46:43.477Z,27.31
2018-07-03T09:49:12.186Z,27.34
2018-07-03T09:51:40.960Z,27.45
2018-07-03T09:54:09.672Z,27.51
2018-07-03T09:56:38.419Z,27.57
2018-07-03T09:59:08.099Z,27.62
2018-07-03T10:01:36.834Z,27.69
2018-07-03T10:04:05.651Z,27.76
2018-07-03T10:06:34.406Z,27.95
2018-07-03T10:09:04.222Z,28.02
2018-07-03T10:11:32.994Z,27.93
2018-07-03T10:14:01.957Z,27.91
2018-07-03T10:16:30.934Z,27.92
2018-07-03T10:19:00.057Z,27.94
2018-07-03T10:21:28.911Z,28.03
2018-07-03T10:23:57.809Z,28.13
2018-07-03T10:26:26.591Z,28.14
2018-07-03T10:28:55.450Z,28.14
2018-07-03T10:31:24.403Z,28.14
2018-07-03T10:33:53.402Z,28.13
2018-07-03T10:36:22.164Z,28.21
2018-07-03T10:38:50.895Z,28.24
2018-07-03T10:41:20.093Z,28.16
2018-07-03T10:43:48.830Z,28.18
2018-07-03T10:46:17.609Z,28.20
2018-07-03T10:48:46.430Z,28.27
2018-07-03T10:51:15.332Z,28.28
2018-07-03T10:53:44.199Z,28.32
2018-07-03T10:56:12.975Z,28.37
2018-07-03T10:58:41.760Z,28.41
2018-07-03T11:01:10.598Z,28.49
2018-07-03T11:03:39.358Z,28.55
2018-07-03T11:06:08.168Z,28.67
2018-07-03T11:08:37.246Z,28.68
2018-07-03T11:11:06.103Z,28.64
2018-07-03T11:13:35.000Z,28.58
2018-07-03T11:16:03.806Z,28.62
2018-07-03T11:18:32.585Z,28.72
2018-07-03T11:21:01.581Z,28.74
2018-07-03T11:23:30.791Z,28.79
2018-07-03T11:25:59.669Z,28.79
2018-07-03T11:28:28.429Z,28.91
2018-07-03T11:30:57.599Z,29.06
2018-07-03T11:33:26.460Z,29.07
2018-07-03T11:35:55.210Z,29.08
2018-07-03T11:38:24.004Z,29.02
2018-07-03T11:40:53.776Z,28.94
2018-07-03T11:43:24.680Z,29.00
2018-07-03T11:45:53.455Z,29.06
2018-07-03T11:48:22.318Z,29.09
2018-07-03T11:50:51.099Z,29.00
2018-07-03T11:53:19.877Z,28.99
2018-07-03T11:55:48.667Z,29.05
2018-07-03T11:58:17.470Z,29.09
2018-07-03T12:00:46.239Z,29.18
2018-07-03T12:03:14.997Z,29.29
2018-07-03T12:05:43.791Z,29.32
2018-07-03T12:08:12.595Z,29.28
2018-07-03T12:10:41.378Z,29.32
2018-07-03T12:13:10.401Z,29.36
2018-07-03T12:15:39.214Z,29.39
2018-07-03T12:18:12.132Z,29.47
2018-07-03T12:20:40.968Z,29.56
2018-07-03T12:23:09.740Z,29.54
2018-07-03T12:25:38.541Z,29.57
2018-07-03T12:28:07.648Z,29.54
2018-07-03T12:30:36.429Z,29.46
2018-07-03T12:33:05.297Z,29.52
2018-07-03T12:35:34.057Z,29.60
2018-07-03T12:38:03.084Z,29.64
2018-07-03T12:40:31.859Z,29.55
2018-07-03T12:43:00.636Z,29.50
2018-07-03T12:45:29.485Z,29.50
2018-07-03T12:47:58.902Z,29.55
2018-07-03T12:50:27.777Z,29.43
2018-07-03T12:52:56.601Z,29.46
2018-07-03T12:55:25.403Z,29.55
2018-07-03T12:57:54.218Z,29.55
2018-07-03T13:00:23.043Z,29.64
2018-07-03T13:02:52.171Z,29.76
2018-07-03T13:05:21.081Z,29.89
2018-07-03T13:07:50.360Z,29.95
2018-07-03T13:10:19.112Z,29.88
2018-07-03T13:12:47.948Z,29.94
2018-07-03T13:15:16.773Z,30.14
2018-07-03T13:17:45.710Z,30.17
2018-07-03T13:20:14.861Z,30.07
2018-07-03T13:22:43.550Z,29.98
2018-07-03T13:25:13.253Z,29.88
2018-07-03T13:27:41.992Z,29.91
2018-07-03T13:30:11.622Z,29.95
2018-07-03T13:32:40.722Z,30.02
2018-07-03T13:35:10.792Z,30.04
2018-07-03T13:37:39.558Z,30.14
2018-07-03T13:40:09.442Z,30.23
2018-07-03T13:42:38.221Z,30.30
2018-07-03T13:45:07.401Z,30.38
2018-07-03T13:47:36.117Z,30.39
2018-07-03T13:50:05.615Z,30.37
2018-07-03T13:52:34.393Z,30.47
2018-07-03T13:55:03.200Z,30.58
2018-07-03T13:57:32.830Z,30.57
2018-07-03T14:00:01.628Z,30.51
2018-07-03T14:02:30.430Z,30.48
2018-07-03T14:04:59.270Z,30.45
2018-07-03T14:07:28.089Z,30.44
2018-07-03T14:09:56.919Z,30.33
2018-07-03T14:12:25.682Z,30.31
2018-07-03T14:14:54.434Z,30.42
2018-07-03T14:17:23.529Z,30.47
2018-07-03T14:19:52.372Z,30.49
2018-07-03T14:22:21.083Z,30.61
2018-07-03T14:24:49.844Z,30.68
2018-07-03T14:27:18.673Z,30.67
2018-07-03T14:29:47.536Z,30.67
2018-07-03T14:32:16.347Z,30.59
2018-07-03T14:34:45.088Z,30.58
2018-07-03T14:37:14.258Z,30.60
2018-07-03T14:39:43.037Z,30.56
2018-07-03T14:42:11.799Z,30.59
2018-07-03T14:44:40.672Z,30.54
2018-07-03T14:47:09.461Z,30.58
2018-07-03T14:49:38.261Z,30.70
2018-07-03T14:52:07.092Z,30.75
2018-07-03T14:54:35.873Z,30.76
2018-07-03T14:57:04.712Z,30.82
2018-07-03T14:59:33.410Z,30.86
2018-07-03T15:02:02.141Z,30.75
2018-07-03T15:04:30.871Z,30.77
2018-07-03T15:06:59.701Z,30.73
2018-07-03T15:09:28.438Z,30.68
2018-07-03T15:11:57.232Z,30.71
2018-07-03T15:14:26.016Z,30.74
2018-07-03T15:16:54.776Z,30.82
2018-07-03T15:19:28.793Z,30.93
2018-07-03T15:21:58.490Z,31.10
2018-07-03T15:24:28.322Z,31.17
2018-07-03T15:26:57.063Z,31.13
2018-07-03T15:29:25.849Z,31.27
2018-07-03T15:31:55.567Z,31.25
2018-07-03T15:34:24.511Z,31.35
2018-07-03T15:36:53.542Z,31.21
2018-07-03T15:39:22.312Z,30.83
2018-07-03T15:41:51.103Z,30.53
2018-07-03T15:44:30.924Z,30.20
2018-07-03T15:46:59.742Z,30.16
2018-07-03T15:49:28.527Z,30.20
2018-07-03T15:51:57.348Z,29.81
2018-07-03T15:54:26.150Z,29.56
2018-07-03T15:56:54.997Z,29.38
2018-07-03T15:59:23.882Z,29.45
2018-07-03T16:01:52.614Z,29.19
2018-07-03T16:05:34.845Z,29.03
2018-07-03T16:09:12.966Z,28.95
2018-07-03T16:11:41.983Z,28.84
2018-07-03T16:14:12.807Z,28.74
2018-07-03T16:16:41.821Z,28.84
2018-07-03T16:19:15.825Z,28.88
2018-07-03T16:21:45.055Z,28.90
2018-07-03T16:24:13.887Z,28.78
2018-07-03T16:26:42.658Z,28.79
2018-07-03T16:29:12.478Z,28.66
2018-07-03T16:31:41.579Z,28.70
2018-07-03T16:34:10.364Z,28.81
2018-07-03T16:36:39.108Z,28.85
2018-07-03T16:39:10.770Z,28.85
2018-07-03T16:41:40.054Z,28.72
2018-07-03T16:44:09.527Z,28.46
2018-07-03T16:46:38.320Z,28.34
2018-07-03T16:49:07.153Z,28.26
2018-07-03T16:51:36.491Z,28.17
2018-07-03T16:54:05.280Z,28.08
2018-07-03T16:56:34.043Z,28.18
2018-07-03T16:59:02.781Z,28.28
2018-07-03T17:01:31.546Z,28.10
2018-07-03T17:04:00.413Z,27.89
2018-07-03T17:06:29.421Z,27.97
2018-07-03T17:08:58.209Z,27.95
2018-07-03T17:11:27.023Z,28.02
2018-07-03T17:13:55.915Z,27.85
2018-07-03T17:16:24.803Z,27.74
2018-07-03T17:18:58.842Z,27.66
2018-07-03T17:21:27.700Z,27.59
2018-07-03T17:23:56.425Z,27.49
2018-07-03T17:26:25.181Z,27.40
2018-07-03T17:28:54.111Z,27.42
2018-07-03T17:31:22.907Z,27.33
2018-07-03T17:33:51.796Z,27.25
2018-07-03T17:36:20.834Z,27.04
2018-07-03T17:38:49.591Z,26.69
2018-07-03T17:41:29.439Z,26.60
2018-07-03T17:44:13.621Z,26.37
2018-07-03T17:46:42.727Z,26.03
2018-07-03T17:49:11.866Z,25.91
2018-07-03T17:51:40.702Z,25.86
2018-07-03T17:54:09.507Z,25.68
2018-07-03T17:56:38.646Z,25.59
2018-07-03T17:59:07.463Z,25.47
2018-07-03T18:01:36.194Z,25.41
2018-07-03T18:04:05.278Z,25.44
2018-07-03T18:06:36.933Z,25.35
2018-07-03T18:09:09.172Z,25.17
2018-07-03T18:11:38.052Z,25.10
2018-07-03T18:14:07.586Z,25.10
2018-07-03T18:16:36.316Z,25.10
2018-07-03T18:19:10.945Z,25.08
2018-07-03T18:21:39.754Z,25.08
2018-07-03T18:24:08.592Z,25.11
2018-07-03T18:26:37.371Z,25.12
2018-07-03T18:29:06.141Z,25.07
2018-07-03T18:31:34.983Z,24.86
2018-07-03T18:34:03.727Z,24.73
2018-07-03T18:36:32.543Z,24.70
2018-07-03T18:39:01.328Z,24.73
2018-07-03T18:41:30.092Z,24.62
2018-07-03T18:43:59.090Z,24.62
2018-07-03T18:46:27.964Z,24.61
2018-07-03T18:48:57.345Z,24.57
2018-07-03T18:51:26.173Z,24.52
2018-07-03T18:53:54.913Z,24.43
2018-07-03T18:56:23.704Z,24.42
2018-07-03T18:58:52.436Z,24.41
2018-07-03T19:01:21.214Z,24.38
2018-07-03T19:03:50.508Z,24.35
2018-07-03T19:06:19.315Z,24.29
2018-07-03T19:08:48.131Z,24.24
2018-07-03T19:11:16.917Z,24.16
2018-07-03T19:13:45.751Z,24.11
2018-07-03T19:16:14.534Z,24.09
2018-07-03T19:18:43.305Z,24.11
2018-07-03T19:21:12.529Z,24.09
2018-07-03T19:23:41.298Z,24.05
2018-07-03T19:26:10.476Z,24.08
2018-07-03T19:28:39.308Z,24.12
2018-07-03T19:31:08.198Z,24.09
2018-07-03T19:33:36.996Z,24.08
2018-07-03T19:36:05.853Z,24.03
2018-07-03T19:38:34.854Z,23.96
2018-07-03T19:41:03.650Z,23.88
2018-07-03T19:43:34.969Z,23.84
2018-07-03T19:46:04.513Z,23.85
2018-07-03T19:48:33.765Z,23.87
2018-07-03T19:51:02.535Z,23.85
2018-07-03T19:53:31.552Z,23.82
2018-07-03T19:56:00.938Z,23.79
2018-07-03T19:58:29.673Z,23.81
2018-07-03T20:00:58.422Z,23.85
2018-07-03T20:03:27.234Z,23.83
2018-07-03T20:05:55.993Z,23.84
2018-07-03T20:08:24.792Z,23.83
2018-07-03T20:10:53.562Z,23.86
2018-07-03T20:13:22.375Z,23.84
2018-07-03T20:15:51.133Z,23.82
2018-07-03T20:18:19.961Z,23.85
2018-07-03T20:20:48.752Z,23.77
2018-07-03T20:23:17.607Z,23.76
2018-07-03T20:25:46.369Z,23.83
2018-07-03T20:28:15.145Z,23.85
2018-07-03T20:30:43.898Z,23.86
2018-07-03T20:33:12.701Z,23.83
2018-07-03T20:35:41.449Z,23.81
2018-07-03T20:38:11.941Z,23.78
2018-07-03T20:41:00.330Z,23.79
2018-07-03T20:43:30.373Z,23.79
2018-07-03T20:45:59.567Z,23.79
2018-07-03T20:48:28.822Z,23.75
2018-07-03T20:50:58.272Z,23.74
2018-07-03T20:53:27.012Z,23.70
2018-07-03T20:55:56.068Z,23.73
2018-07-03T20:58:25.079Z,23.73
2018-07-03T21:00:53.927Z,23.75
2018-07-03T21:03:22.705Z,23.75
2018-07-03T21:05:51.612Z,23.74
2018-07-03T21:08:20.512Z,23.76
2018-07-03T21:10:49.301Z,23.75
2018-07-03T21:13:18.053Z,23.75
2018-07-03T21:15:46.945Z,23.72
2018-07-03T21:18:15.651Z,23.69
2018-07-03T21:20:44.404Z,23.68
2018-07-03T21:23:13.149Z,23.56
2018-07-03T21:25:41.894Z,23.54
2018-07-03T21:28:10.711Z,23.51
2018-07-03T21:30:39.545Z,23.50
2018-07-03T21:33:08.250Z,23.50
2018-07-03T21:35:36.973Z,23.51
2018-07-03T21:38:05.748Z,23.52
2018-07-03T21:40:34.528Z,23.51
2018-07-03T21:43:03.313Z,23.52
2018-07-03T21:45:32.078Z,23.52
2018-07-03T21:48:00.878Z,23.50
2018-07-03T21:50:29.637Z,23.49
2018-07-03T21:52:58.387Z,23.49
2018-07-03T21:55:27.101Z,23.43
2018-07-03T21:57:55.862Z,23.39
2018-07-03T22:00:31.500Z,23.35
2018-07-03T22:03:00.274Z,23.30
2018-07-03T22:05:29.062Z,23.25
2018-07-03T22:07:57.797Z,23.27
2018-07-03T22:10:26.530Z,23.19
2018-07-03T22:12:55.352Z,23.13
2018-07-03T22:15:24.119Z,23.13
2018-07-03T22:17:52.905Z,23.13
2018-07-03T22:20:21.649Z,23.08
2018-07-03T22:22:50.430Z,23.03
2018-07-03T22:25:19.173Z,22.99
2018-07-03T22:27:47.978Z,22.96
2018-07-03T22:30:17.074Z,22.90
2018-07-03T22:32:45.861Z,22.90
2018-07-03T22:35:14.614Z,22.84
2018-07-03T22:37:43.411Z,22.77
2018-07-03T22:40:12.183Z,22.76
2018-07-03T22:42:40.955Z,22.67
2018-07-03T22:45:09.742Z,22.63
2018-07-03T22:47:38.515Z,22.57
2018-07-03T22:50:07.294Z,22.56
2018-07-03T22:52:36.072Z,22.53
2018-07-03T22:55:05.529Z,22.52
2018-07-03T22:57:34.290Z,22.46
2018-07-03T23:00:04.377Z,22.44
2018-07-03T23:02:33.119Z,22.41
2018-07-03T23:05:01.821Z,22.41
2018-07-03T23:07:30.514Z,22.34
2018-07-03T23:09:59.261Z,22.33
2018-07-03T23:12:28.049Z,22.32
2018-07-03T23:14:56.833Z,22.27
2018-07-03T23:17:25.581Z,22.23
2018-07-03T23:19:54.381Z,22.25
2018-07-03T23:22:23.100Z,22.31
2018-07-03T23:24:51.870Z,22.26
2018-07-03T23:27:20.678Z,22.22
2018-07-03T23:29:49.468Z,22.27
2018-07-03T23:32:18.177Z,22.25
2018-07-03T23:34:46.919Z,22.18
2018-07-03T23:37:15.636Z,22.17
2018-07-03T23:39:44.386Z,22.17
2018-07-03T23:42:13.190Z,22.13
2018-07-03T23:44:41.925Z,22.15
2018-07-03T23:47:21.705Z,22.15
2018-07-03T23:50:02.229Z,22.18
2018-07-03T23:52:42.050Z,22.20
2018-07-03T23:55:21.700Z,22.23
2018-07-03T23:58:01.362Z,22.23
